OIII/THR METAR and TAF weather

Enter ICAO airport designator
Station Type Date Time Source
OIII METAR 2021/05/17 22:30 UTC NOAA

OIII 172230Z 04004KT 9999 FEW040 24/01 Q1013 A2993


Station Type Date Time Source
OIII Decoded METAR 2021/05/17 22:30 UTC NOAA

Tehran-Mehrabad, Iran (OIII) 35-41N 051-21E 1191M
May 17, 2021 - 06:30 PM EDT / 2021.05.17 2230 UTC
Wind: from the NE (040 degrees) at 5 MPH (4 KT):0
Visibility: greater than 7 mile(s):0
Sky conditions: mostly clear
Temperature: 75 F (24 C)
Dew Point: 33 F (1 C)
Relative Humidity: 22%
Pressure (altimeter): 29.93 in. Hg (1013 hPa)
ob: OIII 172230Z 04004KT 9999 FEW040 24/01 Q1013 A2993
cycle: 22

Station Type Date Time Source
OIII TAF 2021/05/17 18:30 UTC NOAA

TAF OIII 171750Z 1718/1824 06008KT 8000 FEW035 SCT100
TEMPO 1718/1721 32016KT TS FEW035CB SCT040 SCT100
TEMPO 1806/1809 20018KT
TEMPO 1809/1818 24018G26KT 6000 FEW030CB SCT035 BKN100 PROB40 1812/1815 TS SCT030CB SCT035 BKN100

Example: see airport list